createdAt,value
2022-12-27T00:00:04.501Z,1.79
2022-12-27T00:02:31.232Z,1.80
2022-12-27T00:04:58.138Z,1.83
2022-12-27T00:07:24.817Z,1.84
2022-12-27T00:09:51.538Z,1.85
2022-12-27T00:12:18.266Z,1.84
2022-12-27T00:14:45.311Z,1.84
2022-12-27T00:17:11.979Z,1.84
2022-12-27T00:19:38.664Z,1.84
2022-12-27T00:22:05.438Z,1.83
2022-12-27T00:24:32.366Z,1.85
2022-12-27T00:26:59.142Z,1.84
2022-12-27T00:29:25.923Z,1.84
2022-12-27T00:31:52.736Z,1.85
2022-12-27T00:34:19.468Z,1.86
2022-12-27T00:36:46.137Z,1.88
2022-12-27T00:39:12.849Z,1.87
2022-12-27T00:41:39.563Z,1.87
2022-12-27T00:44:06.278Z,1.86
2022-12-27T00:46:32.956Z,1.89
2022-12-27T00:48:59.619Z,1.87
2022-12-27T00:51:26.704Z,1.84
2022-12-27T00:53:53.926Z,1.83
2022-12-27T00:56:26.692Z,1.85
2022-12-27T00:58:58.416Z,1.85
2022-12-27T01:01:26.801Z,1.86
2022-12-27T01:03:56.937Z,1.84
2022-12-27T01:06:29.820Z,1.85
2022-12-27T01:08:57.117Z,1.83
2022-12-27T01:11:24.529Z,1.86
2022-12-27T01:13:51.430Z,1.86
2022-12-27T01:16:21.562Z,1.82
2022-12-27T01:18:48.964Z,1.79
2022-12-27T01:21:23.843Z,1.77
2022-12-27T01:23:52.787Z,1.74
2022-12-27T01:26:24.257Z,1.77
2022-12-27T01:28:52.223Z,1.71
2022-12-27T01:31:28.319Z,1.68
2022-12-27T01:34:00.290Z,1.66
2022-12-27T01:36:29.072Z,1.64
2022-12-27T01:38:55.983Z,1.65
2022-12-27T01:41:53.807Z,1.64
2022-12-27T01:44:56.921Z,1.63
2022-12-27T01:47:37.754Z,1.62
2022-12-27T01:50:14.778Z,1.62
2022-12-27T01:53:01.616Z,1.61
2022-12-27T01:55:48.814Z,1.60
2022-12-27T01:58:15.409Z,1.59
2022-12-27T02:00:45.022Z,1.57
2022-12-27T02:03:17.557Z,1.54
2022-12-27T02:05:44.358Z,1.49
2022-12-27T02:08:24.027Z,1.51
2022-12-27T02:10:51.384Z,1.51
2022-12-27T02:13:19.267Z,1.52
2022-12-27T02:15:46.072Z,1.54
2022-12-27T02:18:13.197Z,1.56
2022-12-27T02:21:11.157Z,1.56
2022-12-27T02:24:11.566Z,1.58
2022-12-27T02:26:53.923Z,1.59
2022-12-27T02:29:38.972Z,1.58
2022-12-27T02:32:08.348Z,1.55
2022-12-27T02:34:57.201Z,1.52
2022-12-27T02:37:28.099Z,1.55
2022-12-27T02:40:17.551Z,1.56
2022-12-27T02:43:05.612Z,1.55
2022-12-27T02:45:56.978Z,1.57
2022-12-27T02:48:42.174Z,1.59
2022-12-27T02:51:48.047Z,1.59
2022-12-27T02:54:42.450Z,1.58
2022-12-27T02:57:26.277Z,1.57
2022-12-27T03:00:34.713Z,1.52
2022-12-27T03:03:29.782Z,1.50
2022-12-27T03:06:42.198Z,1.49
2022-12-27T03:09:59.093Z,1.49
2022-12-27T03:13:01.702Z,1.46
2022-12-27T03:15:55.759Z,1.47
2022-12-27T03:18:37.567Z,1.50
2022-12-27T03:21:25.872Z,1.51
2022-12-27T03:24:15.122Z,1.56
2022-12-27T03:26:47.137Z,1.59
2022-12-27T03:29:35.948Z,1.60
2022-12-27T03:32:27.032Z,1.64
2022-12-27T03:34:59.767Z,1.69
2022-12-27T03:37:50.919Z,1.71
2022-12-27T03:40:20.417Z,1.76
2022-12-27T03:43:11.658Z,1.76
2022-12-27T03:46:09.050Z,1.76
2022-12-27T03:48:45.369Z,1.77
2022-12-27T03:51:14.971Z,1.77
2022-12-27T03:53:45.085Z,1.77
2022-12-27T03:56:12.129Z,1.78
2022-12-27T03:58:38.775Z,1.79
2022-12-27T04:01:05.865Z,1.80
2022-12-27T04:03:32.687Z,1.82
2022-12-27T04:05:59.442Z,1.80
2022-12-27T04:08:44.605Z,1.84
2022-12-27T04:11:30.135Z,1.85
2022-12-27T04:14:15.230Z,1.86
2022-12-27T04:17:00.379Z,1.88
2022-12-27T04:19:45.746Z,1.86
2022-12-27T04:22:30.832Z,1.88
2022-12-27T04:25:16.442Z,1.89
2022-12-27T04:28:01.596Z,1.91
2022-12-27T04:30:46.904Z,1.94
2022-12-27T04:33:32.478Z,1.94
2022-12-27T04:36:04.297Z,1.98
2022-12-27T04:38:32.805Z,1.98
2022-12-27T04:41:18.039Z,2.02
2022-12-27T04:44:03.513Z,2.04
2022-12-27T04:46:48.914Z,2.06
2022-12-27T04:49:40.545Z,2.05
2022-12-27T04:52:37.119Z,2.06
2022-12-27T04:55:26.198Z,2.07
2022-12-27T04:57:53.395Z,2.09
2022-12-27T05:00:40.753Z,2.09
2022-12-27T05:03:10.710Z,2.13
2022-12-27T05:05:38.984Z,2.16
2022-12-27T05:08:25.597Z,2.17
2022-12-27T05:11:11.331Z,2.19
2022-12-27T05:13:59.428Z,2.21
2022-12-27T05:16:35.637Z,2.21
2022-12-27T05:19:02.628Z,2.22
2022-12-27T05:21:29.263Z,2.23
2022-12-27T05:24:14.693Z,2.23
2022-12-27T05:26:41.379Z,2.24
2022-12-27T05:29:08.856Z,2.26
2022-12-27T05:31:35.753Z,2.28
2022-12-27T05:34:02.486Z,2.30
2022-12-27T05:36:29.222Z,2.33
2022-12-27T05:38:55.957Z,2.33
2022-12-27T05:41:22.706Z,2.36
2022-12-27T05:43:50.110Z,2.38
2022-12-27T05:46:20.195Z,2.41
2022-12-27T05:48:48.222Z,2.42
2022-12-27T05:51:20.272Z,2.44
2022-12-27T05:53:48.001Z,2.48
2022-12-27T05:56:16.932Z,2.49
2022-12-27T05:58:43.685Z,2.51
2022-12-27T06:01:12.586Z,2.53
2022-12-27T06:03:39.737Z,2.52
2022-12-27T06:06:08.170Z,2.55
2022-12-27T06:08:35.633Z,2.57
2022-12-27T06:11:09.374Z,2.59
2022-12-27T06:13:37.873Z,2.58
2022-12-27T06:16:06.741Z,2.61
2022-12-27T06:18:35.679Z,2.61
2022-12-27T06:21:08.310Z,2.60
2022-12-27T06:23:37.068Z,2.62
2022-12-27T06:26:08.359Z,2.64
2022-12-27T06:28:35.479Z,2.64
2022-12-27T06:31:03.031Z,2.66
2022-12-27T06:33:30.150Z,2.65
2022-12-27T06:35:57.410Z,2.66
2022-12-27T06:38:24.169Z,2.66
2022-12-27T06:40:50.825Z,2.67
2022-12-27T06:43:18.002Z,2.67
2022-12-27T06:45:44.683Z,2.68
2022-12-27T06:48:11.430Z,2.67
2022-12-27T06:50:38.133Z,2.70
2022-12-27T06:53:04.799Z,2.71
2022-12-27T06:55:31.472Z,2.72
2022-12-27T06:57:58.139Z,2.72
2022-12-27T07:00:24.797Z,2.73
2022-12-27T07:02:51.556Z,2.73
2022-12-27T07:05:18.306Z,2.72
2022-12-27T07:07:44.981Z,2.72
2022-12-27T07:10:11.715Z,2.73
2022-12-27T07:12:38.750Z,2.74
2022-12-27T07:15:06.900Z,2.73
2022-12-27T07:17:37.321Z,2.73
2022-12-27T07:20:05.695Z,2.74
2022-12-27T07:22:32.687Z,2.74
2022-12-27T07:24:59.556Z,2.73
2022-12-27T07:27:26.256Z,2.76
2022-12-27T07:29:53.024Z,2.77
2022-12-27T07:32:19.674Z,2.79
2022-12-27T07:34:46.335Z,2.76
2022-12-27T07:37:13.284Z,2.77
2022-12-27T07:39:40.124Z,2.76
2022-12-27T07:42:08.629Z,2.76
2022-12-27T07:44:35.597Z,2.76
2022-12-27T07:47:02.441Z,2.73
2022-12-27T07:49:29.214Z,2.73
2022-12-27T07:51:56.124Z,2.74
2022-12-27T07:54:23.025Z,2.74
2022-12-27T07:56:49.727Z,2.74
2022-12-27T07:59:16.463Z,2.73
2022-12-27T08:02:02.068Z,2.71
2022-12-27T08:04:28.965Z,2.70
2022-12-27T08:07:02.277Z,2.70
2022-12-27T08:09:32.374Z,2.70
2022-12-27T08:11:59.060Z,2.71
2022-12-27T08:14:25.774Z,2.70
2022-12-27T08:16:56.346Z,2.72
2022-12-27T08:19:23.089Z,2.71
2022-12-27T08:21:49.762Z,2.72
2022-12-27T08:24:16.421Z,2.72
2022-12-27T08:26:43.140Z,2.73
2022-12-27T08:29:09.811Z,2.73
2022-12-27T08:31:36.486Z,2.74
2022-12-27T08:34:03.459Z,2.75
2022-12-27T08:36:54.780Z,2.76
2022-12-27T08:39:16.843Z,2.80
2022-12-27T08:41:43.569Z,2.80
2022-12-27T08:44:10.787Z,2.83
2022-12-27T08:46:37.652Z,2.84
2022-12-27T08:49:04.814Z,2.84
2022-12-27T08:51:38.722Z,2.86
2022-12-27T08:54:07.764Z,2.85
2022-12-27T08:56:34.495Z,2.87
2022-12-27T08:59:01.296Z,2.88
2022-12-27T09:01:28.599Z,2.89
2022-12-27T09:03:55.471Z,2.89
2022-12-27T09:06:24.582Z,2.89
2022-12-27T09:08:52.781Z,2.90
2022-12-27T09:11:25.475Z,2.91
2022-12-27T09:13:52.517Z,2.90
2022-12-27T09:16:22.687Z,2.90
2022-12-27T09:18:51.370Z,2.91
2022-12-27T09:21:19.595Z,2.91
2022-12-27T09:23:47.237Z,2.92
2022-12-27T09:26:19.457Z,2.93
2022-12-27T09:28:47.184Z,2.92
2022-12-27T09:31:15.368Z,2.91
2022-12-27T09:33:43.053Z,2.91
2022-12-27T09:36:30.493Z,2.92
2022-12-27T09:38:58.812Z,2.90
2022-12-27T09:44:36.519Z,2.89
2022-12-27T09:47:20.582Z,2.91
2022-12-27T09:49:59.209Z,2.89
2022-12-27T09:52:52.657Z,2.88
2022-12-27T09:55:34.938Z,2.82
2022-12-27T09:58:24.180Z,2.82
2022-12-27T10:00:51.547Z,2.83
2022-12-27T10:03:24.168Z,2.84
2022-12-27T10:06:00.361Z,2.85
2022-12-27T10:08:50.467Z,2.84
2022-12-27T10:11:40.159Z,2.84
2022-12-27T10:14:23.931Z,2.82
2022-12-27T10:17:13.090Z,2.82
2022-12-27T10:20:14.031Z,2.80
2022-12-27T10:23:01.393Z,2.80
2022-12-27T10:25:31.570Z,2.81
2022-12-27T10:28:10.509Z,2.83
2022-12-27T10:30:37.231Z,2.84
2022-12-27T10:33:03.915Z,2.87
2022-12-27T10:35:31.289Z,2.90
2022-12-27T10:38:00.183Z,2.90
2022-12-27T10:40:40.169Z,2.92
2022-12-27T10:43:18.271Z,2.91
2022-12-27T10:45:45.181Z,2.88
2022-12-27T10:48:36.417Z,2.89
2022-12-27T10:51:14.505Z,2.87
2022-12-27T10:53:46.947Z,2.85
2022-12-27T10:56:16.920Z,2.83
2022-12-27T10:58:45.110Z,2.84
2022-12-27T11:01:18.257Z,2.84
2022-12-27T11:03:45.243Z,2.85
2022-12-27T11:06:26.268Z,2.87
2022-12-27T11:08:54.393Z,2.88
2022-12-27T11:11:27.026Z,2.90
2022-12-27T11:14:10.566Z,2.93
2022-12-27T11:16:40.131Z,2.95
2022-12-27T11:19:07.019Z,2.97
2022-12-27T11:21:39.204Z,3.00
2022-12-27T11:24:06.215Z,3.02
2022-12-27T11:26:53.656Z,3.04
2022-12-27T11:29:23.652Z,3.06
2022-12-27T11:31:52.236Z,3.09
2022-12-27T11:34:27.536Z,3.11
2022-12-27T11:37:02.617Z,3.15
2022-12-27T11:39:46.656Z,3.15
2022-12-27T11:42:38.564Z,3.18
2022-12-27T11:45:14.172Z,3.20
2022-12-27T11:48:07.580Z,3.22
2022-12-27T11:50:43.953Z,3.25
2022-12-27T11:53:28.651Z,3.26
2022-12-27T11:55:57.899Z,3.25
2022-12-27T11:58:52.530Z,3.25
2022-12-27T12:01:47.335Z,3.26
2022-12-27T12:04:44.084Z,3.26
2022-12-27T12:07:53.700Z,3.26
2022-12-27T12:10:45.908Z,3.25
2022-12-27T12:13:24.325Z,3.23
2022-12-27T12:15:56.674Z,3.24
2022-12-27T12:19:01.665Z,3.23
2022-12-27T12:21:58.576Z,3.23
2022-12-27T12:24:43.642Z,3.22
2022-12-27T12:27:35.241Z,3.20
2022-12-27T12:30:27.328Z,3.17
2022-12-27T12:33:36.565Z,3.14
2022-12-27T12:36:30.810Z,3.09
2022-12-27T12:39:03.520Z,3.04
2022-12-27T12:41:59.473Z,2.96
2022-12-27T12:44:54.100Z,2.85
2022-12-27T12:47:50.971Z,2.76
2022-12-27T12:50:46.815Z,2.68
2022-12-27T12:53:45.915Z,2.64
2022-12-27T12:56:59.185Z,2.63
2022-12-27T12:59:47.050Z,2.65
2022-12-27T13:02:35.285Z,2.67
2022-12-27T13:05:50.115Z,2.69
2022-12-27T13:08:44.061Z,2.70
2022-12-27T13:11:19.828Z,2.71
2022-12-27T13:14:18.046Z,2.73
2022-12-27T13:17:02.272Z,2.74
2022-12-27T13:19:54.169Z,2.77
2022-12-27T13:22:45.969Z,2.77
2022-12-27T13:25:28.395Z,2.79
2022-12-27T13:28:32.862Z,2.79
2022-12-27T13:31:23.268Z,2.79
2022-12-27T13:33:55.637Z,2.81
2022-12-27T13:36:29.647Z,2.82
2022-12-27T13:39:15.006Z,2.82
2022-12-27T13:41:52.903Z,2.82
2022-12-27T13:44:31.536Z,2.84
2022-12-27T13:47:01.309Z,2.85
2022-12-27T13:49:37.081Z,2.84
2022-12-27T13:52:39.982Z,2.84
2022-12-27T13:55:31.652Z,2.85
2022-12-27T13:58:32.448Z,2.87
2022-12-27T14:01:10.817Z,2.85
2022-12-27T14:04:08.820Z,2.84
2022-12-27T14:07:02.115Z,2.82
2022-12-27T14:09:44.450Z,2.82
2022-12-27T14:12:27.700Z,2.81
2022-12-27T14:15:00.571Z,2.81
2022-12-27T14:17:58.269Z,2.81
2022-12-27T14:20:43.179Z,2.81
2022-12-27T14:23:37.520Z,2.78
2022-12-27T14:26:55.263Z,2.70
2022-12-27T14:29:33.953Z,2.65
2022-12-27T14:32:22.536Z,2.58
2022-12-27T14:34:59.409Z,2.53
2022-12-27T14:37:54.449Z,2.47
2022-12-27T14:40:36.993Z,2.41
2022-12-27T14:43:41.024Z,2.37
2022-12-27T14:46:29.504Z,2.33
2022-12-27T14:49:24.174Z,2.31
2022-12-27T14:52:15.200Z,2.26
2022-12-27T14:54:59.873Z,2.24
2022-12-27T14:57:54.358Z,2.19
2022-12-27T15:00:24.540Z,2.17
2022-12-27T15:03:12.473Z,2.13
2022-12-27T15:06:08.488Z,2.11
2022-12-27T15:09:06.797Z,2.11
2022-12-27T15:11:45.946Z,2.11
2022-12-27T15:14:17.566Z,2.09
2022-12-27T15:17:15.051Z,2.09
2022-12-27T15:19:59.806Z,2.07
2022-12-27T15:22:34.175Z,2.05
2022-12-27T15:25:19.420Z,2.06
2022-12-27T15:27:53.592Z,2.04
2022-12-27T15:30:26.541Z,2.02
2022-12-27T15:33:23.854Z,2.00
2022-12-27T15:36:02.611Z,2.00
2022-12-27T15:38:38.134Z,1.98
2022-12-27T15:41:20.409Z,2.00
2022-12-27T15:43:47.182Z,2.00
2022-12-27T15:46:39.355Z,2.00
2022-12-27T15:49:41.162Z,2.00
2022-12-27T15:52:24.903Z,1.98
2022-12-27T15:55:12.768Z,1.96
2022-12-27T15:57:57.775Z,1.95
2022-12-27T16:00:24.426Z,1.94
2022-12-27T16:02:55.203Z,1.94
2022-12-27T16:05:22.083Z,1.94
2022-12-27T16:07:53.067Z,1.94
2022-12-27T16:10:31.856Z,1.93
2022-12-27T16:13:04.250Z,1.93
2022-12-27T16:15:50.253Z,1.92
2022-12-27T16:18:16.914Z,1.89
2022-12-27T16:20:58.851Z,1.87
2022-12-27T16:23:29.984Z,1.87
2022-12-27T16:26:20.487Z,1.86
2022-12-27T16:28:53.148Z,1.85
2022-12-27T16:31:23.335Z,1.86
2022-12-27T16:33:52.297Z,1.87
2022-12-27T16:36:26.379Z,1.85
2022-12-27T16:39:11.586Z,1.84
2022-12-27T16:41:56.720Z,1.81
2022-12-27T16:44:26.488Z,1.79
2022-12-27T16:47:08.177Z,1.79
2022-12-27T16:49:55.602Z,1.78
2022-12-27T16:52:37.659Z,1.76
2022-12-27T16:55:36.661Z,1.74
2022-12-27T16:58:19.723Z,1.72
2022-12-27T17:00:48.539Z,1.69
2022-12-27T17:03:20.942Z,1.65
2022-12-27T17:06:31.316Z,1.62
2022-12-27T17:08:39.586Z,1.62
2022-12-27T17:11:15.200Z,1.61
2022-12-27T17:13:57.209Z,1.60
2022-12-27T17:16:28.184Z,1.59
2022-12-27T17:19:02.819Z,1.57
2022-12-27T17:21:38.784Z,1.55
2022-12-27T17:24:17.559Z,1.56
2022-12-27T17:27:08.563Z,1.56
2022-12-27T17:30:05.280Z,1.53
2022-12-27T17:33:04.996Z,1.51
2022-12-27T17:35:32.056Z,1.52
2022-12-27T17:38:26.711Z,1.49
2022-12-27T17:41:11.950Z,1.49
2022-12-27T17:44:03.490Z,1.47
2022-12-27T17:46:39.190Z,1.47
2022-12-27T17:49:09.905Z,1.46
2022-12-27T17:51:40.969Z,1.46
2022-12-27T17:54:45.182Z,1.43
2022-12-27T17:57:32.113Z,1.41
2022-12-27T17:59:59.939Z,1.39
2022-12-27T18:02:37.653Z,1.39
2022-12-27T18:05:12.546Z,1.38
2022-12-27T18:07:39.641Z,1.38
2022-12-27T18:10:06.646Z,1.36
2022-12-27T18:12:42.060Z,1.35
2022-12-27T18:15:18.103Z,1.33
2022-12-27T18:17:53.904Z,1.30
2022-12-27T18:20:27.166Z,1.31
2022-12-27T18:23:13.420Z,1.27
2022-12-27T18:25:51.750Z,1.23
2022-12-27T18:28:27.225Z,1.24
2022-12-27T18:31:27.099Z,1.22
2022-12-27T18:34:01.253Z,1.20
2022-12-27T18:36:33.480Z,1.18
2022-12-27T18:39:05.233Z,1.18
2022-12-27T18:41:47.815Z,1.16
2022-12-27T18:44:48.163Z,1.17
2022-12-27T18:47:23.980Z,1.15
2022-12-27T18:50:42.882Z,1.13
2022-12-27T18:53:37.865Z,1.09
2022-12-27T18:56:15.775Z,1.09
2022-12-27T18:59:02.951Z,1.08
2022-12-27T19:01:38.252Z,1.06
2022-12-27T19:04:14.324Z,1.03
2022-12-27T19:06:42.708Z,1.02
2022-12-27T19:09:16.909Z,1.00
2022-12-27T19:11:53.384Z,0.99
2022-12-27T19:14:21.546Z,0.99
2022-12-27T19:16:53.425Z,0.99
2022-12-27T19:19:26.333Z,1.00
2022-12-27T19:21:53.198Z,0.98
2022-12-27T19:24:30.815Z,0.95
2022-12-27T19:27:03.706Z,0.94
2022-12-27T19:29:37.939Z,0.94
2022-12-27T19:32:10.081Z,0.94
2022-12-27T19:34:49.139Z,0.92
2022-12-27T19:37:16.189Z,0.88
2022-12-27T19:39:45.724Z,0.87
2022-12-27T19:42:17.333Z,0.84
2022-12-27T19:44:44.814Z,0.85
2022-12-27T19:47:14.314Z,0.85
2022-12-27T19:49:43.737Z,0.84
2022-12-27T19:52:19.652Z,0.84
2022-12-27T19:54:47.783Z,0.82
2022-12-27T19:57:14.437Z,0.81
2022-12-27T19:59:41.296Z,0.80
2022-12-27T20:02:08.933Z,0.79
2022-12-27T20:04:35.976Z,0.79
2022-12-27T20:07:02.995Z,0.76
2022-12-27T20:09:29.916Z,0.75
2022-12-27T20:11:56.990Z,0.71
2022-12-27T20:14:23.806Z,0.73
2022-12-27T20:16:50.543Z,0.72
2022-12-27T20:19:18.228Z,0.74
2022-12-27T20:21:45.176Z,0.75
2022-12-27T20:24:13.194Z,0.75
2022-12-27T20:26:40.975Z,0.73
2022-12-27T20:29:07.750Z,0.72
2022-12-27T20:31:42.428Z,0.72
2022-12-27T20:34:12.548Z,0.71
2022-12-27T20:36:39.278Z,0.70
2022-12-27T20:39:07.652Z,0.68
2022-12-27T20:41:34.516Z,0.68
2022-12-27T20:44:01.520Z,0.68
2022-12-27T20:46:28.472Z,0.68
2022-12-27T20:48:56.646Z,0.68
2022-12-27T20:51:26.011Z,0.69
2022-12-27T20:53:57.600Z,0.69
2022-12-27T20:56:25.572Z,0.66
2022-12-27T20:58:52.326Z,0.65
2022-12-27T21:01:21.747Z,0.63
2022-12-27T21:03:49.070Z,0.62
2022-12-27T21:06:21.942Z,0.62
2022-12-27T21:08:56.206Z,0.61
2022-12-27T21:11:27.695Z,0.59
2022-12-27T21:13:55.127Z,0.58
2022-12-27T21:16:24.263Z,0.57
2022-12-27T21:18:51.058Z,0.58
2022-12-27T21:21:21.187Z,0.56
2022-12-27T21:23:48.803Z,0.53
2022-12-27T21:26:21.195Z,0.54
2022-12-27T21:28:48.418Z,0.54
2022-12-27T21:31:16.494Z,0.54
2022-12-27T21:33:43.336Z,0.52
2022-12-27T21:36:16.360Z,0.50
2022-12-27T21:38:43.397Z,0.49
2022-12-27T21:41:15.682Z,0.50
2022-12-27T21:43:43.487Z,0.49
2022-12-27T21:46:14.812Z,0.47
2022-12-27T21:48:41.980Z,0.48
2022-12-27T21:51:14.160Z,0.47
2022-12-27T21:53:41.571Z,0.45
2022-12-27T21:56:09.888Z,0.43
2022-12-27T21:58:38.539Z,0.43
2022-12-27T22:01:12.661Z,0.43
2022-12-27T22:03:41.634Z,0.43
2022-12-27T22:06:16.956Z,0.40
2022-12-27T22:08:45.969Z,0.40
2022-12-27T22:11:13.721Z,0.38
2022-12-27T22:13:40.947Z,0.36
2022-12-27T22:16:12.175Z,0.35
2022-12-27T22:18:41.586Z,0.32
2022-12-27T22:21:10.785Z,0.30
2022-12-27T22:23:40.093Z,0.29
2022-12-27T22:26:11.928Z,0.27
2022-12-27T22:28:39.119Z,0.28
2022-12-27T22:31:07.539Z,0.28
2022-12-27T22:33:35.714Z,0.27
2022-12-27T22:36:04.450Z,0.27
2022-12-27T22:38:32.630Z,0.26
2022-12-27T22:41:20.437Z,0.25
2022-12-27T22:43:58.875Z,0.21
2022-12-27T22:46:26.995Z,0.20
2022-12-27T22:48:58.864Z,0.17
2022-12-27T22:51:28.927Z,0.15
2022-12-27T22:53:56.999Z,0.10
2022-12-27T22:56:30.132Z,0.10
2022-12-27T22:58:57.043Z,0.07
2022-12-27T23:01:27.852Z,0.06
2022-12-27T23:03:56.316Z,0.06
2022-12-27T23:06:24.026Z,0.07
2022-12-27T23:08:51.158Z,0.06
2022-12-27T23:11:23.024Z,0.07
2022-12-27T23:13:55.745Z,0.03
2022-12-27T23:16:22.517Z,0.03
2022-12-27T23:18:49.540Z,0.01
2022-12-27T23:21:21.479Z,-0.01
2022-12-27T23:23:51.059Z,-0.03
2022-12-27T23:26:19.762Z,-0.04
2022-12-27T23:28:47.880Z,-0.06
2022-12-27T23:31:15.223Z,-0.07
2022-12-27T23:33:43.443Z,-0.07
2022-12-27T23:36:13.229Z,-0.09
2022-12-27T23:38:41.750Z,-0.09
2022-12-27T23:41:12.872Z,-0.11
2022-12-27T23:43:56.196Z,-0.14
2022-12-27T23:46:24.720Z,-0.16
2022-12-27T23:48:51.574Z,-0.18
2022-12-27T23:51:18.406Z,-0.22
2022-12-27T23:53:45.209Z,-0.22
2022-12-27T23:56:15.905Z,-0.23
2022-12-27T23:58:43.589Z,-0.27
